Terminal Aerodrome Forecast
Issued by NWS Jackson, KY

Home | Current Version | Previous Version | Text Only | Print | Product List | Glossary On
Versions: 1 2 3 4 5 6 7 8 9 10 11 12 13 14 15
285
FTUS43 KJKL 281738
TAFLOZ
TAF
KLOZ 281738Z 2818/2918 21006KT P6SM SCT040 BKN100
     FM290000 VRB03KT P6SM SCT250
     FM290900 00000KT 5SM BR BKN080
     FM291300 VRB06KT P6SM VCSH SCT050 BKN100=

USA.gov is the U.S. government's official web portal to all federal, state and local government web resources and services.